SKX2213 SPUR-SPJC
Flight info
| Callsign | SKX2213 |
|---|---|
| Flight time | N/A |
| Altitude | 34000 |
| Route | SIDOM1 CLA UV1 ATATU ATATU4 |
| Aircraft | A20N/M-SD3/L |
Departure
| Time | N/A |
|---|---|
| Airport | PAF Captain Guillermo Concha Iberico International Airport (SPUR) |
Arrival
| Time | 2026-04-29 01:49 |
|---|---|
| Airport | Jorge Chávez International Airport (SPJC) |
| Time | Latitude | Longitude | Altitude | Speed | Heading |
|---|---|---|---|---|---|
| 2026-04-29 01:14 | -9.03204 | -78.58640 | 34978 ft | 458 kts | 150° |
| 2026-04-29 01:14 | -9.06015 | -78.57069 | 34980 ft | 458 kts | 150° |
| 2026-04-29 01:15 | -9.11588 | -78.53953 | 34984 ft | 458 kts | 150° |
| 2026-04-29 01:15 | -9.17277 | -78.50946 | 34989 ft | 458 kts | 153° |
| 2026-04-29 01:16 | -9.23015 | -78.48163 | 34992 ft | 458 kts | 154° |
| 2026-04-29 01:16 | -9.28798 | -78.45363 | 34996 ft | 459 kts | 154° |
| 2026-04-29 01:17 | -9.34549 | -78.42570 | 34996 ft | 459 kts | 154° |
| 2026-04-29 01:17 | -9.40331 | -78.39758 | 34992 ft | 459 kts | 154° |
| 2026-04-29 01:18 | -9.46096 | -78.36954 | 34963 ft | 459 kts | 154° |
| 2026-04-29 01:18 | -9.54775 | -78.32729 | 34910 ft | 459 kts | 154° |
| 2026-04-29 01:19 | -9.60522 | -78.29931 | 34900 ft | 459 kts | 154° |
| 2026-04-29 01:19 | -9.66296 | -78.27119 | 34900 ft | 459 kts | 154° |
| 2026-04-29 01:20 | -9.72038 | -78.24321 | 34900 ft | 459 kts | 154° |
| 2026-04-29 01:20 | -9.77812 | -78.21505 | 34900 ft | 459 kts | 154° |
| 2026-04-29 01:21 | -9.83587 | -78.18687 | 34898 ft | 459 kts | 154° |
| 2026-04-29 01:21 | -9.89330 | -78.15884 | 34897 ft | 459 kts | 154° |
| 2026-04-29 01:22 | -9.95125 | -78.13055 | 34899 ft | 459 kts | 154° |
| 2026-04-29 01:22 | -10.00870 | -78.10249 | 34904 ft | 459 kts | 154° |
| 2026-04-29 01:23 | -10.06637 | -78.07432 | 34907 ft | 459 kts | 154° |
| 2026-04-29 01:23 | -10.12390 | -78.04620 | 34906 ft | 459 kts | 154° |
| 2026-04-29 01:24 | -10.18169 | -78.01794 | 34904 ft | 459 kts | 154° |
| 2026-04-29 01:24 | -10.23938 | -77.98978 | 34900 ft | 459 kts | 154° |
| 2026-04-29 01:25 | -10.29692 | -77.96171 | 34865 ft | 459 kts | 154° |
| 2026-04-29 01:25 | -10.35472 | -77.93349 | 34754 ft | 458 kts | 154° |
| 2026-04-29 01:26 | -10.38328 | -77.91954 | 34149 ft | 462 kts | 154° |
| 2026-04-29 01:26 | -10.41233 | -77.90534 | 33077 ft | 466 kts | 154° |
| 2026-04-29 01:26 | -10.44148 | -77.89109 | 31785 ft | 469 kts | 154° |
| 2026-04-29 01:26 | -10.47068 | -77.87680 | 30411 ft | 471 kts | 154° |
| 2026-04-29 01:27 | -10.50031 | -77.86230 | 28968 ft | 473 kts | 154° |
| 2026-04-29 01:27 | -10.52968 | -77.84793 | 27722 ft | 469 kts | 154° |
| 2026-04-29 01:27 | -10.55852 | -77.83382 | 26624 ft | 456 kts | 154° |
| 2026-04-29 01:27 | -10.58694 | -77.81992 | 25467 ft | 445 kts | 154° |
| 2026-04-29 01:28 | -10.61440 | -77.80650 | 24303 ft | 435 kts | 154° |
| 2026-04-29 01:28 | -10.64124 | -77.79337 | 23147 ft | 426 kts | 154° |
| 2026-04-29 01:28 | -10.66764 | -77.78045 | 22082 ft | 417 kts | 154° |
| 2026-04-29 01:28 | -10.69329 | -77.76789 | 21084 ft | 407 kts | 154° |
| 2026-04-29 01:29 | -10.71829 | -77.75565 | 20567 ft | 390 kts | 154° |
| 2026-04-29 01:29 | -10.74264 | -77.74372 | 20148 ft | 384 kts | 155° |
| 2026-04-29 01:29 | -10.76679 | -77.73191 | 19793 ft | 381 kts | 155° |
| 2026-04-29 01:29 | -10.79054 | -77.72033 | 19428 ft | 380 kts | 155° |
| 2026-04-29 01:30 | -10.81443 | -77.70867 | 19028 ft | 378 kts | 154° |
| 2026-04-29 01:30 | -10.83801 | -77.69715 | 18623 ft | 375 kts | 154° |
| 2026-04-29 01:30 | -10.86146 | -77.68565 | 18228 ft | 372 kts | 154° |
| 2026-04-29 01:30 | -10.88469 | -77.67426 | 17820 ft | 368 kts | 154° |
| 2026-04-29 01:31 | -10.90764 | -77.66298 | 17405 ft | 365 kts | 154° |
| 2026-04-29 01:31 | -10.93056 | -77.65172 | 16984 ft | 363 kts | 154° |
| 2026-04-29 01:31 | -10.95328 | -77.64056 | 16560 ft | 360 kts | 154° |
| 2026-04-29 01:31 | -10.97580 | -77.62950 | 16139 ft | 357 kts | 154° |
| 2026-04-29 01:32 | -10.99792 | -77.61864 | 15726 ft | 353 kts | 154° |
| 2026-04-29 01:32 | -11.02001 | -77.60779 | 15312 ft | 350 kts | 154° |
| 2026-04-29 01:32 | -11.04187 | -77.59704 | 14900 ft | 348 kts | 154° |
| 2026-04-29 01:32 | -11.06369 | -77.58631 | 14486 ft | 345 kts | 154° |
| 2026-04-29 01:33 | -11.08526 | -77.57571 | 14073 ft | 343 kts | 154° |
| 2026-04-29 01:33 | -11.10663 | -77.56520 | 13665 ft | 341 kts | 154° |
| 2026-04-29 01:33 | -11.12800 | -77.55470 | 13253 ft | 337 kts | 154° |
| 2026-04-29 01:33 | -11.14901 | -77.54437 | 12847 ft | 336 kts | 154° |
| 2026-04-29 01:34 | -11.17007 | -77.53402 | 12440 ft | 333 kts | 154° |
| 2026-04-29 01:34 | -11.19087 | -77.52380 | 12164 ft | 325 kts | 154° |
| 2026-04-29 01:34 | -11.21092 | -77.51395 | 12013 ft | 313 kts | 154° |
| 2026-04-29 01:34 | -11.23019 | -77.50449 | 11859 ft | 302 kts | 154° |
| 2026-04-29 01:35 | -11.24869 | -77.49541 | 11685 ft | 292 kts | 154° |
| 2026-04-29 01:35 | -11.26699 | -77.48671 | 11367 ft | 289 kts | 155° |
| 2026-04-29 01:35 | -11.28527 | -77.47814 | 11046 ft | 287 kts | 155° |
| 2026-04-29 01:35 | -11.30356 | -77.46959 | 10725 ft | 285 kts | 155° |
| 2026-04-29 01:36 | -11.32144 | -77.46121 | 10412 ft | 284 kts | 155° |
| 2026-04-29 01:36 | -11.33937 | -77.45279 | 10099 ft | 282 kts | 155° |
| 2026-04-29 01:36 | -11.35711 | -77.44444 | 9794 ft | 279 kts | 155° |
| 2026-04-29 01:36 | -11.37464 | -77.43619 | 9510 ft | 277 kts | 155° |
| 2026-04-29 01:37 | -11.39220 | -77.42793 | 9212 ft | 274 kts | 155° |
| 2026-04-29 01:37 | -11.40939 | -77.41983 | 8914 ft | 273 kts | 155° |
| 2026-04-29 01:37 | -11.42663 | -77.41170 | 8613 ft | 272 kts | 155° |
| 2026-04-29 01:37 | -11.44389 | -77.40356 | 8310 ft | 270 kts | 155° |
| 2026-04-29 01:38 | -11.46095 | -77.39552 | 8010 ft | 269 kts | 155° |
| 2026-04-29 01:38 | -11.47790 | -77.38752 | 7712 ft | 268 kts | 155° |
| 2026-04-29 01:38 | -11.49482 | -77.37955 | 7416 ft | 266 kts | 155° |
| 2026-04-29 01:38 | -11.51159 | -77.37163 | 7122 ft | 265 kts | 155° |
| 2026-04-29 01:39 | -11.52828 | -77.36376 | 6831 ft | 262 kts | 155° |
| 2026-04-29 01:39 | -11.54489 | -77.35593 | 6541 ft | 261 kts | 155° |
| 2026-04-29 01:39 | -11.56140 | -77.34816 | 6253 ft | 259 kts | 155° |
| 2026-04-29 01:39 | -11.57766 | -77.34048 | 5969 ft | 257 kts | 155° |
| 2026-04-29 01:40 | -11.59397 | -77.33279 | 5685 ft | 256 kts | 155° |
| 2026-04-29 01:40 | -11.61010 | -77.32520 | 5541 ft | 248 kts | 155° |
| 2026-04-29 01:40 | -11.62570 | -77.31803 | 5464 ft | 242 kts | 157° |
| 2026-04-29 01:40 | -11.64126 | -77.31162 | 5257 ft | 242 kts | 158° |
| 2026-04-29 01:41 | -11.65679 | -77.30512 | 4996 ft | 240 kts | 157° |
| 2026-04-29 01:41 | -11.67232 | -77.29831 | 4733 ft | 239 kts | 156° |
| 2026-04-29 01:41 | -11.68751 | -77.29136 | 4476 ft | 238 kts | 155° |
| 2026-04-29 01:41 | -11.70245 | -77.28429 | 4222 ft | 237 kts | 154° |
| 2026-04-29 01:42 | -11.71745 | -77.27703 | 3967 ft | 237 kts | 154° |
| 2026-04-29 01:42 | -11.73258 | -77.26959 | 3714 ft | 245 kts | 154° |
| 2026-04-29 01:42 | -11.74799 | -77.26193 | 3444 ft | 244 kts | 154° |
| 2026-04-29 01:42 | -11.76322 | -77.25433 | 3271 ft | 237 kts | 154° |
| 2026-04-29 01:43 | -11.77775 | -77.24708 | 3250 ft | 222 kts | 154° |
| 2026-04-29 01:43 | -11.79132 | -77.24031 | 3186 ft | 210 kts | 154° |
| 2026-04-29 01:43 | -11.80431 | -77.23383 | 3085 ft | 208 kts | 154° |
| 2026-04-29 01:43 | -11.81739 | -77.22733 | 2970 ft | 207 kts | 154° |
| 2026-04-29 01:44 | -11.83040 | -77.22087 | 2828 ft | 207 kts | 154° |
| 2026-04-29 01:44 | -11.84336 | -77.21445 | 2504 ft | 210 kts | 154° |
| 2026-04-29 01:44 | -11.85659 | -77.20790 | 2207 ft | 207 kts | 154° |
| 2026-04-29 01:44 | -11.86935 | -77.20158 | 2080 ft | 203 kts | 154° |
| 2026-04-29 01:45 | -11.88188 | -77.19538 | 2165 ft | 190 kts | 154° |
| 2026-04-29 01:45 | -11.89307 | -77.18984 | 2104 ft | 168 kts | 154° |
| 2026-04-29 01:45 | -11.90310 | -77.18488 | 2099 ft | 153 kts | 154° |
| 2026-04-29 01:45 | -11.91256 | -77.18021 | 2124 ft | 149 kts | 154° |
| 2026-04-29 01:46 | -11.92201 | -77.17555 | 2015 ft | 149 kts | 154° |
| 2026-04-29 01:46 | -11.93136 | -77.17094 | 1824 ft | 148 kts | 154° |
| 2026-04-29 01:46 | -11.94060 | -77.16639 | 1637 ft | 147 kts | 154° |
| 2026-04-29 01:46 | -11.94976 | -77.16187 | 1450 ft | 146 kts | 154° |
| 2026-04-29 01:47 | -11.95898 | -77.15732 | 1261 ft | 146 kts | 154° |
| 2026-04-29 01:47 | -11.96817 | -77.15279 | 1070 ft | 145 kts | 154° |
| 2026-04-29 01:47 | -11.97719 | -77.14833 | 882 ft | 144 kts | 154° |
| 2026-04-29 01:47 | -11.98629 | -77.14384 | 692 ft | 143 kts | 154° |
| 2026-04-29 01:48 | -11.99520 | -77.13949 | 504 ft | 142 kts | 155° |
| 2026-04-29 01:48 | -12.00409 | -77.13506 | 324 ft | 141 kts | 154° |
| 2026-04-29 01:48 | -12.01287 | -77.13069 | 158 ft | 139 kts | 154° |
| 2026-04-29 01:48 | -12.02108 | -77.12666 | 130 ft | 112 kts | 154° |
| 2026-04-29 01:49 | -12.02598 | -77.12426 | 129 ft | 40 kts | 152° |
| 2026-04-29 01:49 | -12.02726 | -77.12294 | 129 ft | 15 kts | 129° |
| 2026-04-29 01:49 | -12.02756 | -77.12219 | 129 ft | 11 kts | 59° |
| 2026-04-29 01:49 | -12.02689 | -77.12202 | 129 ft | 11 kts | 341° |